Time;durP1;ratioP1;P1;durP2;ratioP2;P2;SDS_P1;SDS_P2;PMS_P1;PMS_P2;Temp;Humidity;BMP_temperature;BMP_pressure;BME280_temperature;BME280_humidity;BME280_pressure;Samples;Min_cycle;Max_cycle;Signal;HPM_P1;HPM_P2
2023/07/22 00:02:22;;;;;;;7.80;3.80;;;;;;;;;;6252054;28;20192;-67
2023/07/22 00:05:23;;;;;;;6.53;4.33;;;;;;;;;;6264863;28;20225;-67
2023/07/22 00:08:24;;;;;;;7.40;3.73;;;;;;;;;;6253757;28;20196;-67
2023/07/22 00:11:25;;;;;;;4.30;3.87;;;;;;;;;;6243709;28;20190;-67
2023/07/22 00:14:27;;;;;;;5.27;3.73;;;;;;;;;;6249789;28;20234;-67
2023/07/22 00:17:28;;;;;;;7.87;3.90;;;;;;;;;;6249426;28;20183;-67
2023/07/22 00:20:29;;;;;;;10.10;4.17;;;;;;;;;;6263967;28;20198;-67
2023/07/22 00:23:30;;;;;;;5.60;3.67;;;;;;;;;;6236258;28;20202;-67
2023/07/22 00:26:31;;;;;;;4.30;3.90;;;;;;;;;;6274410;28;20297;-67
2023/07/22 00:29:32;;;;;;;6.10;3.70;;;;;;;;;;6276093;28;20233;-67
2023/07/22 00:32:33;;;;;;;7.07;3.40;;;;;;;;;;6250502;28;20191;-67
2023/07/22 00:35:34;;;;;;;6.03;3.30;;;;;;;;;;6267579;28;20225;-67
2023/07/22 00:38:35;;;;;;;7.37;4.23;;;;;;;;;;6247673;28;20246;-67
2023/07/22 00:41:36;;;;;;;5.63;4.13;;;;;;;;;;6251445;28;20194;-67
2023/07/22 00:44:37;;;;;;;4.90;4.30;;;;;;;;;;6254951;28;20215;-67
2023/07/22 00:47:38;;;;;;;9.23;3.90;;;;;;;;;;6256141;28;20214;-67
2023/07/22 00:50:39;;;;;;;8.67;4.17;;;;;;;;;;6256709;28;20261;-67
2023/07/22 00:53:41;;;;;;;9.20;4.40;;;;;;;;;;6271161;28;20202;-67
2023/07/22 00:56:42;;;;;;;5.43;4.03;;;;;;;;;;6254807;28;20193;-67
2023/07/22 00:59:44;;;;;;;5.73;4.30;;;;;;;;;;6251668;28;20222;-67
2023/07/22 01:02:45;;;;;;;8.30;4.13;;;;;;;;;;6254670;28;20244;-67
2023/07/22 01:05:47;;;;;;;6.63;3.83;;;;;;;;;;6245894;28;20220;-67
2023/07/22 01:08:48;;;;;;;8.13;4.20;;;;;;;;;;6257124;28;20186;-67
2023/07/22 01:11:49;;;;;;;5.10;3.67;;;;;;;;;;6265426;28;20260;-67
2023/07/22 01:14:51;;;;;;;6.20;3.70;;;;;;;;;;6270206;28;20189;-67
2023/07/22 01:17:52;;;;;;;6.50;4.20;;;;;;;;;;6266176;28;20177;-67
2023/07/22 01:20:53;;;;;;;6.17;4.17;;;;;;;;;;6252388;28;20183;-67
2023/07/22 01:23:55;;;;;;;7.57;3.63;;;;;;;;;;6245990;28;20200;-67
2023/07/22 01:26:56;;;;;;;8.80;3.67;;;;;;;;;;6261978;28;20183;-67
2023/07/22 01:29:57;;;;;;;5.80;3.83;;;;;;;;;;6264158;28;20245;-67
2023/07/22 01:32:58;;;;;;;6.37;4.00;;;;;;;;;;6244880;28;20209;-67
2023/07/22 01:36:01;;;;;;;9.37;3.70;;;;;;;;;;6245058;28;20220;-67
2023/07/22 01:39:02;;;;;;;7.97;3.43;;;;;;;;;;6254794;28;20195;-67
2023/07/22 01:42:03;;;;;;;6.90;3.70;;;;;;;;;;6252605;28;20190;-67
2023/07/22 01:45:07;;;;;;;4.97;3.93;;;;;;;;;;6243345;28;20222;-67
2023/07/22 01:48:08;;;;;;;6.33;3.60;;;;;;;;;;6276055;28;20265;-67
2023/07/22 01:51:09;;;;;;;10.43;4.17;;;;;;;;;;6262533;28;20252;-68
2023/07/22 01:54:11;;;;;;;6.57;3.73;;;;;;;;;;6261535;28;20194;-68
2023/07/22 01:57:12;;;;;;;3.40;3.10;;;;;;;;;;6263112;28;20280;-68
2023/07/22 02:00:14;;;;;;;5.00;3.30;;;;;;;;;;6242252;28;20286;-68
2023/07/22 02:03:15;;;;;;;3.93;3.43;;;;;;;;;;6272128;28;20224;-68
2023/07/22 02:06:17;;;;;;;5.87;3.67;;;;;;;;;;6243722;28;20221;-68
2023/07/22 02:09:18;;;;;;;4.10;3.57;;;;;;;;;;6242961;28;20268;-68
2023/07/22 02:12:19;;;;;;;5.50;4.00;;;;;;;;;;6268291;28;20181;-68
2023/07/22 02:15:22;;;;;;;5.97;3.70;;;;;;;;;;6270072;28;20216;-68
2023/07/22 02:18:23;;;;;;;5.17;3.30;;;;;;;;;;6273479;28;20285;-68
2023/07/22 02:21:24;;;;;;;7.93;4.10;;;;;;;;;;6256108;28;20207;-68
2023/07/22 02:24:25;;;;;;;7.20;3.63;;;;;;;;;;6257668;28;20206;-68
2023/07/22 02:27:26;;;;;;;4.00;3.60;;;;;;;;;;6247692;28;20182;-68
2023/07/22 02:30:27;;;;;;;8.70;3.83;;;;;;;;;;6244677;28;20233;-68
2023/07/22 02:33:28;;;;;;;7.00;4.20;;;;;;;;;;6246055;28;20196;-68
2023/07/22 02:36:29;;;;;;;4.90;3.30;;;;;;;;;;6267272;28;20194;-68
2023/07/22 02:39:30;;;;;;;8.00;3.80;;;;;;;;;;6246244;28;20225;-68
2023/07/22 02:42:31;;;;;;;4.77;3.30;;;;;;;;;;6257257;28;20266;-68
2023/07/22 02:45:32;;;;;;;4.60;3.53;;;;;;;;;;6236764;28;20218;-68
2023/07/22 02:48:33;;;;;;;4.47;3.07;;;;;;;;;;6264566;28;20195;-68
2023/07/22 02:51:34;;;;;;;3.90;3.17;;;;;;;;;;6250107;28;20269;-68
2023/07/22 02:54:41;;;;;;;5.53;3.50;;;;;;;;;;6240433;28;20277;-68
2023/07/22 02:57:42;;;;;;;3.50;3.20;;;;;;;;;;6263409;28;20198;-68
2023/07/22 03:00:44;;;;;;;6.27;3.53;;;;;;;;;;6267105;28;20262;-68
2023/07/22 03:03:45;;;;;;;5.07;3.33;;;;;;;;;;6277520;28;20286;-68
2023/07/22 03:06:46;;;;;;;4.83;3.10;;;;;;;;;;6243153;28;20190;-68
2023/07/22 03:09:47;;;;;;;5.53;3.70;;;;;;;;;;6247826;28;20198;-68
2023/07/22 03:12:48;;;;;;;5.77;3.63;;;;;;;;;;6250989;28;20191;-68
2023/07/22 03:15:49;;;;;;;4.53;3.27;;;;;;;;;;6253913;28;20248;-68
2023/07/22 03:18:50;;;;;;;4.43;4.00;;;;;;;;;;6236013;28;20194;-68
2023/07/22 03:21:51;;;;;;;9.17;3.90;;;;;;;;;;6266884;28;20256;-68
2023/07/22 03:24:52;;;;;;;6.27;3.57;;;;;;;;;;6266147;28;20211;-68
2023/07/22 03:27:53;;;;;;;4.87;3.60;;;;;;;;;;6249281;28;20190;-68
2023/07/22 03:30:54;;;;;;;6.90;3.40;;;;;;;;;;6269197;28;20202;-68
2023/07/22 03:33:55;;;;;;;5.40;3.20;;;;;;;;;;6249053;28;20189;-68
2023/07/22 03:36:58;;;;;;;8.27;3.63;;;;;;;;;;6265500;28;20214;-68
2023/07/22 03:39:59;;;;;;;3.83;3.20;;;;;;;;;;6249312;28;20198;-69
2023/07/22 03:43:00;;;;;;;5.60;3.00;;;;;;;;;;6276319;28;20198;-68
2023/07/22 03:46:01;;;;;;;5.93;3.37;;;;;;;;;;6278045;28;20229;-68
2023/07/22 03:49:02;;;;;;;4.27;3.03;;;;;;;;;;6249485;28;20190;-68
2023/07/22 03:52:03;;;;;;;6.43;3.27;;;;;;;;;;6254085;28;20189;-68
2023/07/22 03:55:05;;;;;;;4.87;3.23;;;;;;;;;;6247029;28;20197;-68
2023/07/22 03:58:06;;;;;;;7.27;3.83;;;;;;;;;;6261431;28;20243;-68
2023/07/22 04:01:07;;;;;;;5.10;2.97;;;;;;;;;;6249659;28;20190;-68
2023/07/22 04:04:08;;;;;;;7.67;3.10;;;;;;;;;;6243923;28;20213;-68
2023/07/22 04:07:09;;;;;;;9.53;3.60;;;;;;;;;;6277934;28;20190;-68
2023/07/22 04:10:10;;;;;;;7.03;3.53;;;;;;;;;;6265823;28;20197;-68
2023/07/22 04:13:11;;;;;;;6.20;3.03;;;;;;;;;;6274128;28;20201;-68
2023/07/22 04:16:12;;;;;;;4.80;3.30;;;;;;;;;;6272794;28;20198;-68
2023/07/22 04:19:13;;;;;;;4.70;3.33;;;;;;;;;;6251755;28;20219;-68
2023/07/22 04:22:14;;;;;;;4.33;2.93;;;;;;;;;;6251965;28;20211;-68
2023/07/22 04:25:15;;;;;;;12.83;3.57;;;;;;;;;;6247377;28;20217;-68
2023/07/22 04:28:16;;;;;;;4.63;2.80;;;;;;;;;;6234185;28;20288;-68
2023/07/22 04:31:18;;;;;;;5.43;3.43;;;;;;;;;;6268018;28;20198;-68
2023/07/22 04:34:19;;;;;;;7.93;3.43;;;;;;;;;;6246254;28;20199;-68
2023/07/22 04:37:20;;;;;;;7.93;3.53;;;;;;;;;;6247583;28;20197;-68
2023/07/22 04:40:21;;;;;;;6.23;3.43;;;;;;;;;;6250619;28;20198;-68
2023/07/22 04:43:22;;;;;;;8.07;3.30;;;;;;;;;;6243058;28;20200;-68
2023/07/22 04:46:23;;;;;;;4.97;3.47;;;;;;;;;;6249957;28;20241;-69
2023/07/22 04:49:24;;;;;;;3.90;3.60;;;;;;;;;;6244306;28;20190;-69
2023/07/22 04:52:25;;;;;;;6.10;3.70;;;;;;;;;;6246705;28;20193;-67
2023/07/22 04:55:29;;;;;;;7.23;3.60;;;;;;;;;;6250385;28;20248;-68
2023/07/22 04:58:30;;;;;;;5.63;3.37;;;;;;;;;;6240259;28;20198;-68
2023/07/22 05:01:31;;;;;;;5.03;3.60;;;;;;;;;;6249910;28;20198;-68
2023/07/22 05:04:32;;;;;;;5.23;3.33;;;;;;;;;;6251625;28;20229;-68
2023/07/22 05:07:33;;;;;;;8.17;3.77;;;;;;;;;;6263539;28;20191;-68
2023/07/22 05:10:35;;;;;;;6.97;3.70;;;;;;;;;;6250158;28;20193;-68
2023/07/22 05:13:36;;;;;;;4.77;3.67;;;;;;;;;;6254640;28;20202;-68
2023/07/22 05:16:37;;;;;;;5.27;4.00;;;;;;;;;;6275026;28;20202;-68
2023/07/22 05:19:38;;;;;;;8.03;3.77;;;;;;;;;;6247353;28;20190;-68
2023/07/22 05:22:39;;;;;;;4.33;3.37;;;;;;;;;;6254998;28;20197;-68
2023/07/22 05:25:40;;;;;;;5.90;3.77;;;;;;;;;;6248401;28;20215;-68
2023/07/22 05:28:41;;;;;;;4.20;3.80;;;;;;;;;;6246210;28;20279;-69
2023/07/22 05:31:42;;;;;;;7.00;3.77;;;;;;;;;;6245727;28;20299;-68
2023/07/22 05:34:43;;;;;;;5.23;3.70;;;;;;;;;;6236651;28;20203;-68
2023/07/22 05:37:44;;;;;;;3.70;3.40;;;;;;;;;;6252456;28;20276;-68
2023/07/22 05:40:45;;;;;;;6.20;3.97;;;;;;;;;;6257330;28;20256;-68
2023/07/22 05:43:47;;;;;;;4.47;4.03;;;;;;;;;;6252050;28;20193;-68
2023/07/22 05:46:48;;;;;;;5.47;3.87;;;;;;;;;;6246474;28;20202;-68
2023/07/22 05:49:49;;;;;;;5.13;3.93;;;;;;;;;;6258675;28;20197;-68
2023/07/22 05:52:50;;;;;;;4.20;3.80;;;;;;;;;;6258637;28;20194;-68
2023/07/22 05:55:51;;;;;;;5.53;4.27;;;;;;;;;;6273926;28;20289;-69
2023/07/22 05:58:52;;;;;;;4.57;3.87;;;;;;;;;;6243508;28;20264;-69
2023/07/22 06:01:53;;;;;;;6.30;3.77;;;;;;;;;;6244501;28;20342;-67
2023/07/22 06:04:54;;;;;;;5.13;3.63;;;;;;;;;;6273026;28;20235;-68
2023/07/22 06:07:57;;;;;;;4.40;4.00;;;;;;;;;;6271907;28;20197;-67
2023/07/22 06:10:58;;;;;;;5.17;3.83;;;;;;;;;;6257587;28;20202;-68
2023/07/22 06:13:59;;;;;;;4.17;3.53;;;;;;;;;;6249830;28;20184;-68
2023/07/22 06:17:00;;;;;;;4.40;3.33;;;;;;;;;;6260927;28;20190;-68
2023/07/22 06:20:01;;;;;;;5.80;4.17;;;;;;;;;;6245043;28;20190;-68
2023/07/22 06:23:03;;;;;;;4.80;4.00;;;;;;;;;;6258364;28;20186;-68
2023/07/22 06:26:04;;;;;;;5.63;4.53;;;;;;;;;;6268865;28;20214;-67
2023/07/22 06:29:05;;;;;;;3.63;3.23;;;;;;;;;;6249485;28;20238;-68
2023/07/22 06:32:06;;;;;;;6.07;4.37;;;;;;;;;;6249136;28;20190;-67
2023/07/22 06:35:07;;;;;;;6.43;4.23;;;;;;;;;;6238185;28;20201;-67
2023/07/22 06:38:08;;;;;;;5.37;4.63;;;;;;;;;;6245363;28;20198;-68
2023/07/22 06:41:09;;;;;;;6.00;4.13;;;;;;;;;;6253852;28;20256;-68
2023/07/22 06:44:10;;;;;;;4.40;4.00;;;;;;;;;;6255192;28;20213;-68
2023/07/22 06:47:11;;;;;;;4.93;3.63;;;;;;;;;;6251447;28;20217;-68
2023/07/22 06:50:13;;;;;;;5.13;4.53;;;;;;;;;;6243703;28;20197;-68
2023/07/22 06:53:14;;;;;;;6.13;4.40;;;;;;;;;;6275739;28;20229;-67
2023/07/22 06:56:15;;;;;;;4.50;4.10;;;;;;;;;;6253330;28;20249;-67
2023/07/22 06:59:16;;;;;;;4.90;4.17;;;;;;;;;;6249453;28;20222;-68
2023/07/22 07:02:17;;;;;;;4.40;4.00;;;;;;;;;;6278464;28;20213;-67
2023/07/22 07:05:18;;;;;;;4.57;4.17;;;;;;;;;;6244627;28;20241;-67
2023/07/22 07:08:19;;;;;;;8.47;4.37;;;;;;;;;;6273046;28;20198;-68
2023/07/22 07:11:20;;;;;;;4.67;4.10;;;;;;;;;;6245399;28;20245;-68
2023/07/22 07:14:22;;;;;;;6.20;4.50;;;;;;;;;;6247349;28;20189;-69
2023/07/22 07:17:23;;;;;;;7.60;4.10;;;;;;;;;;6248043;28;20202;-69
2023/07/22 07:20:24;;;;;;;4.40;4.00;;;;;;;;;;6252088;28;20198;-67
2023/07/22 07:23:25;;;;;;;4.80;4.27;;;;;;;;;;6248352;28;20202;-68
2023/07/22 07:26:26;;;;;;;5.13;4.63;;;;;;;;;;6258961;28;20260;-68
2023/07/22 07:29:27;;;;;;;4.37;3.97;;;;;;;;;;6263107;28;20233;-67
2023/07/22 07:32:28;;;;;;;5.87;4.70;;;;;;;;;;6244799;28;20190;-68
2023/07/22 07:35:29;;;;;;;5.90;4.40;;;;;;;;;;6262732;28;20201;-68
2023/07/22 07:38:30;;;;;;;7.40;4.97;;;;;;;;;;6242834;28;20236;-68
2023/07/22 07:41:31;;;;;;;5.47;4.77;;;;;;;;;;6249361;28;20190;-68
2023/07/22 07:44:32;;;;;;;7.87;5.23;;;;;;;;;;6252991;28;20210;-68
2023/07/22 07:47:33;;;;;;;5.33;4.83;;;;;;;;;;6267118;28;20225;-68
2023/07/22 07:50:34;;;;;;;6.27;5.23;;;;;;;;;;6247169;28;20192;-68
2023/07/22 07:53:35;;;;;;;6.37;4.70;;;;;;;;;;6246818;28;20199;-68
2023/07/22 07:56:36;;;;;;;5.50;5.00;;;;;;;;;;6241565;28;20190;-68
2023/07/22 07:59:37;;;;;;;5.60;5.00;;;;;;;;;;6267754;28;20188;-68
2023/07/22 08:02:38;;;;;;;5.00;4.53;;;;;;;;;;6256765;28;20253;-68
2023/07/22 08:05:40;;;;;;;5.93;5.07;;;;;;;;;;6267129;28;20257;-68
2023/07/22 08:08:41;;;;;;;7.63;5.20;;;;;;;;;;6250098;28;20191;-68
2023/07/22 08:11:43;;;;;;;5.37;4.87;;;;;;;;;;6266105;28;20190;-68
2023/07/22 08:14:44;;;;;;;5.43;4.93;;;;;;;;;;6254230;28;20237;-68
2023/07/22 08:17:45;;;;;;;5.00;4.50;;;;;;;;;;6250376;28;20193;-68
2023/07/22 08:20:47;;;;;;;5.47;4.97;;;;;;;;;;6244536;28;20192;-67
2023/07/22 08:23:48;;;;;;;6.40;5.53;;;;;;;;;;6236691;28;20241;-68
2023/07/22 08:26:49;;;;;;;5.70;5.20;;;;;;;;;;6244584;28;20206;-68
2023/07/22 08:29:50;;;;;;;5.30;4.80;;;;;;;;;;6273833;28;20245;-68
2023/07/22 08:32:51;;;;;;;5.77;5.17;;;;;;;;;;6263309;28;20185;-68
2023/07/22 08:35:52;;;;;;;6.10;4.50;;;;;;;;;;6270431;28;20213;-68
2023/07/22 08:38:53;;;;;;;6.50;5.07;;;;;;;;;;6246954;28;20193;-68
2023/07/22 08:41:56;;;;;;;7.80;5.03;;;;;;;;;;6243625;28;20197;-68
2023/07/22 08:44:57;;;;;;;4.67;3.93;;;;;;;;;;6238414;28;20213;-68
2023/07/22 08:47:59;;;;;;;4.03;3.30;;;;;;;;;;6246184;28;20289;-68
2023/07/22 08:51:19;;;;;;;4.20;3.53;;;;;;;;;;6234277;28;20194;-67
2023/07/22 08:54:20;;;;;;;4.93;4.10;;;;;;;;;;6259002;28;20222;-68
2023/07/22 08:57:22;;;;;;;5.27;4.40;;;;;;;;;;6249202;28;20217;-68
2023/07/22 09:00:23;;;;;;;4.77;4.27;;;;;;;;;;6260409;28;20202;-68
2023/07/22 09:03:25;;;;;;;5.20;4.43;;;;;;;;;;6266988;28;20198;-68
2023/07/22 09:06:26;;;;;;;5.50;4.67;;;;;;;;;;6252652;28;20219;-68
2023/07/22 09:09:28;;;;;;;4.27;3.87;;;;;;;;;;6248457;28;20196;-68
2023/07/22 09:12:29;;;;;;;3.77;3.47;;;;;;;;;;6251213;28;20186;-68
2023/07/22 09:15:32;;;;;;;4.60;3.93;;;;;;;;;;6244636;28;20194;-68
2023/07/22 09:18:36;;;;;;;4.70;4.27;;;;;;;;;;6260298;28;20198;-67
2023/07/22 09:21:37;;;;;;;4.47;3.90;;;;;;;;;;6267917;28;20182;-68
2023/07/22 09:24:38;;;;;;;5.37;3.87;;;;;;;;;;6250107;28;21095;-68
2023/07/22 09:27:39;;;;;;;3.80;3.43;;;;;;;;;;6271921;28;20197;-67
2023/07/22 09:30:40;;;;;;;3.87;3.33;;;;;;;;;;6237665;28;20239;-68
2023/07/22 09:33:42;;;;;;;5.47;4.10;;;;;;;;;;6265766;28;20239;-68
2023/07/22 09:37:03;;;;;;;3.80;3.43;;;;;;;;;;6249327;28;20208;-68
2023/07/22 09:40:24;;;;;;;5.20;3.63;;;;;;;;;;6245444;28;20251;-68
2023/07/22 09:43:26;;;;;;;4.73;3.83;;;;;;;;;;6248745;28;20222;-68
2023/07/22 09:46:32;;;;;;;5.80;3.70;;;;;;;;;;6259090;28;20217;-68
2023/07/22 09:49:33;;;;;;;4.27;3.17;;;;;;;;;;6259592;28;20213;-67
2023/07/22 09:52:40;;;;;;;4.10;3.70;;;;;;;;;;6251019;28;20279;-68
2023/07/22 09:55:41;;;;;;;5.00;3.87;;;;;;;;;;6252016;28;20290;-68
2023/07/22 09:58:43;;;;;;;4.93;3.67;;;;;;;;;;6270819;28;20208;-68
2023/07/22 10:01:46;;;;;;;4.17;3.80;;;;;;;;;;6246489;28;20198;-67
2023/07/22 10:04:50;;;;;;;4.17;3.80;;;;;;;;;;6245690;28;20214;-68
2023/07/22 10:07:55;;;;;;;5.07;3.60;;;;;;;;;;6254712;28;20190;-68
2023/07/22 10:10:58;;;;;;;4.10;3.70;;;;;;;;;;6262885;28;21179;-68
2023/07/22 10:13:59;;;;;;;5.50;4.20;;;;;;;;;;6261495;28;20199;-68
2023/07/22 10:17:00;;;;;;;4.90;4.13;;;;;;;;;;6256980;28;20284;-68
2023/07/22 10:20:06;;;;;;;4.10;3.70;;;;;;;;;;6257387;28;20282;-68
2023/07/22 10:23:08;;;;;;;3.77;3.40;;;;;;;;;;6254700;28;20221;-68
2023/07/22 10:26:13;;;;;;;4.00;3.13;;;;;;;;;;6266760;28;20229;-66
2023/07/22 10:29:14;;;;;;;5.33;3.97;;;;;;;;;;6253943;28;20233;-68
2023/07/22 10:32:17;;;;;;;4.33;3.13;;;;;;;;;;6282251;28;20222;-68
2023/07/22 10:35:29;;;;;;;3.87;3.30;;;15.20;99.90;;;;;;6253731;28;20194;-68
2023/07/22 10:38:31;;;;;;;4.57;3.23;;;20.40;95.60;;;;;;6257501;28;20194;-68
2023/07/22 10:41:37;;;;;;;4.80;4.10;;;20.50;83.30;;;;;;6272488;28;20189;-68
2023/07/22 10:44:39;;;;;;;4.07;3.67;;;20.60;85.50;;;;;;6249318;28;20217;-67
2023/07/22 10:47:40;;;;;;;5.27;3.80;;;;;;;;;;6269844;28;20245;-68
2023/07/22 10:50:46;;;;;;;3.67;3.10;;;;;;;;;;6255008;28;20197;-67
2023/07/22 10:53:48;;;;;;;4.10;3.70;;;;;;;;;;6266547;28;20208;-67
2023/07/22 10:56:49;;;;;;;3.80;3.50;;;;;;;;;;6249743;28;20267;-67
2023/07/22 10:59:50;;;;;;;3.87;3.33;;;;;;;;;;6261790;28;20190;-68
2023/07/22 11:03:10;;;;;;;4.33;3.23;;;;;;;;;;6250319;28;20244;-68
2023/07/22 11:06:15;;;;;;;4.93;3.10;;;;;;;;;;6263940;28;20221;-68
2023/07/22 11:09:34;;;;;;;3.67;3.27;;;;;;;;;;6266283;28;20187;-68
2023/07/22 11:12:35;;;;;;;5.20;3.47;;;;;;;;;;6252762;28;20217;-68
2023/07/22 11:15:36;;;;;;;4.67;3.27;;;;;;;;;;6247337;28;20201;-68
2023/07/22 11:18:41;;;;;;;3.87;3.10;;;;;;;;;;6242508;28;20284;-68
2023/07/22 11:21:42;;;;;;;5.33;3.70;;;;;;;;;;6248575;28;20194;-68
2023/07/22 11:24:44;;;;;;;5.87;3.20;;;;;;;;;;6260667;28;20222;-68
2023/07/22 11:27:45;;;;;;;4.40;3.43;;;;;;;;;;6253128;28;20197;-68
2023/07/22 11:30:46;;;;;;;3.60;3.27;;;;;;;;;;6261218;28;20242;-68
2023/07/22 11:33:47;;;;;;;4.57;3.63;;;;;;;;;;6250284;28;20244;-68
2023/07/22 11:36:50;;;;;;;3.80;3.50;;;;;;;;;;6247529;28;20205;-68
2023/07/22 11:39:51;;;;;;;5.73;3.67;;;;;;;;;;6254652;28;20265;-67
2023/07/22 11:42:52;;;;;;;4.63;3.47;;;;;;;;;;6239884;28;20288;-68
2023/07/22 11:45:53;;;;;;;4.17;3.70;;;;;;;;;;6234004;28;20217;-67
2023/07/22 11:48:55;;;;;;;4.67;3.43;;;;;;;;;;6282600;28;20198;-68
2023/07/22 11:51:57;;;;;;;3.63;3.30;;;;;;;;;;6251699;28;20193;-68
2023/07/22 11:55:03;;;;;;;4.13;3.53;;;;;;;;;;6259814;28;20209;-68
2023/07/22 11:58:04;;;;;;;4.40;3.33;;;;;;;;;;6255383;28;20191;-68
2023/07/22 12:01:05;;;;;;;3.67;3.37;;;;;;;;;;6256817;28;20209;-68
2023/07/22 12:04:15;;;;;;;4.50;3.40;;;;;;;;;;6249054;28;20228;-68
2023/07/22 12:07:26;;;;;;;8.30;3.50;;;;;;;;;;6268905;28;20191;-68
2023/07/22 12:10:27;;;;;;;5.30;3.27;;;;;;;;;;6255266;28;20201;-68
2023/07/22 12:13:28;;;;;;;4.93;3.57;;;;;;;;;;6265466;28;20194;-68
2023/07/22 12:16:29;;;;;;;4.10;3.70;;;20.70;76.00;;;;;;6256335;28;20198;-68
2023/07/22 12:19:30;;;;;;;5.27;3.67;;;22.00;85.20;;;;;;6240831;28;20289;-68
2023/07/22 12:22:31;;;;;;;5.40;3.43;;;22.00;83.50;;;;;;6239662;28;20197;-68
2023/07/22 12:25:32;;;;;;;5.77;3.87;;;;;;;;;;6245582;28;20235;-67
2023/07/22 12:28:33;;;;;;;3.53;3.13;;;;;;;;;;6243281;28;20238;-67
2023/07/22 12:31:34;;;;;;;3.90;3.60;;;;;;;;;;6254752;28;20268;-68
2023/07/22 12:34:36;;;;;;;3.93;3.50;;;;;;;;;;6262115;28;20205;-68
2023/07/22 12:37:37;;;;;;;4.23;3.83;;;;;;;;;;6245713;28;20262;-68
2023/07/22 12:40:38;;;;;;;4.27;3.87;;;;;;;;;;6262916;28;20198;-68
2023/07/22 12:43:39;;;;;;;6.23;4.17;;;;;;;;;;6246336;28;20194;-68
2023/07/22 12:46:40;;;;;;;4.10;3.70;;;;;;;;;;6247119;28;20220;-68
2023/07/22 12:49:42;;;;;;;3.23;2.90;;;;;;;;;;6255720;28;20197;-67
2023/07/22 12:52:43;;;;;;;4.13;3.77;;;;;;;;;;6263843;28;20580;-68
2023/07/22 12:55:44;;;;;;;3.73;3.33;;;;;;;;;;6250552;28;20202;-68
2023/07/22 12:58:45;;;;;;;5.13;3.30;;;;;;;;;;6253258;28;20262;-68
2023/07/22 13:01:46;;;;;;;5.07;3.90;;;;;;;;;;6270704;28;20194;-68
2023/07/22 13:04:47;;;;;;;4.10;3.43;;;;;;;;;;6243464;28;20217;-68
2023/07/22 13:07:49;;;;;;;6.07;3.77;;;;;;;;;;6244921;28;20222;-68
2023/07/22 13:10:50;;;;;;;5.30;3.60;;;;;;;;;;6246095;28;20186;-68
2023/07/22 13:13:51;;;;;;;4.33;3.70;;;;;;;;;;6240421;28;20194;-68
2023/07/22 13:16:52;;;;;;;5.83;3.60;;;;;;;;;;6232492;28;20194;-68
2023/07/22 13:19:53;;;;;;;4.80;3.57;;;;;;;;;;6248498;28;20205;-68
2023/07/22 13:22:55;;;;;;;5.60;4.00;;;;;;;;;;6240245;28;20235;-68
2023/07/22 13:25:56;;;;;;;4.90;3.57;;;;;;;;;;6257112;28;20221;-68
2023/07/22 13:28:57;;;;;;;7.27;4.10;;;;;;;;;;6247051;28;20234;-68
2023/07/22 13:31:59;;;;;;;3.70;3.40;;;;;;;;;;6250978;28;20193;-68
2023/07/22 13:35:00;;;;;;;4.33;3.20;;;;;;;;;;6254040;28;20263;-68
2023/07/22 13:38:01;;;;;;;10.50;4.40;;;;;;;;;;6247425;28;20218;-68
2023/07/22 13:41:02;;;;;;;6.83;4.23;;;;;;;;;;6246639;28;20193;-68
2023/07/22 13:44:03;;;;;;;6.03;3.70;;;;;;;;;;6269098;28;20189;-67
2023/07/22 13:47:04;;;;;;;4.93;3.97;;;;;;;;;;6250950;28;20232;-68
2023/07/22 13:50:05;;;;;;;5.37;3.77;;;;;;;;;;6252859;28;20200;-68
2023/07/22 13:53:06;;;;;;;5.67;3.63;;;22.00;84.70;;;;;;6243232;28;20197;-68
2023/07/22 13:56:07;;;;;;;5.53;3.77;;;21.70;84.70;;;;;;6242625;28;20260;-67
2023/07/22 13:59:08;;;;;;;5.23;4.00;;;21.70;84.70;;;;;;6236390;28;20201;-68
2023/07/22 14:02:08;;;;;;;7.20;3.90;;;21.50;83.90;;;;;;6260173;28;20293;-68
2023/07/22 14:05:10;;;;;;;5.60;3.80;;;21.50;83.80;;;;;;6236070;28;20214;-69
2023/07/22 14:08:10;;;;;;;3.97;3.57;;;21.40;86.30;;;;;;6256040;28;20221;-68
2023/07/22 14:11:11;;;;;;;4.67;3.67;;;21.40;86.60;;;;;;6259975;28;20222;-68
2023/07/22 14:14:12;;;;;;;7.20;4.00;;;21.40;86.00;;;;;;6257506;28;20194;-68
2023/07/22 14:17:12;;;;;;;5.90;4.10;;;21.40;85.50;;;;;;6248515;28;20186;-67
2023/07/22 14:20:14;;;;;;;7.13;4.30;;;21.30;86.50;;;;;;6266672;28;20293;-68
2023/07/22 14:23:15;;;;;;;4.93;4.53;;;21.30;86.50;;;;;;6247229;28;20240;-68
2023/07/22 14:26:16;;;;;;;4.83;4.33;;;;;;;;;;6263336;28;20224;-68
2023/07/22 14:29:17;;;;;;;4.67;4.10;;;;;;;;;;6249270;28;20248;-68
2023/07/22 14:32:18;;;;;;;4.20;3.80;;;;;;;;;;6244590;28;20191;-68
2023/07/22 14:35:19;;;;;;;5.70;4.13;;;;;;;;;;6237873;28;20198;-68
2023/07/22 14:38:20;;;;;;;5.33;4.07;;;;;;;;;;6255883;28;20252;-68
2023/07/22 14:41:22;;;;;;;6.27;4.20;;;;;;;;;;6250235;28;20277;-68
2023/07/22 14:44:23;;;;;;;5.73;4.30;;;;;;;;;;6269808;28;20237;-68
2023/07/22 14:47:24;;;;;;;6.00;3.97;;;;;;;;;;6269606;28;20196;-68
2023/07/22 14:50:25;;;;;;;5.67;4.43;;;;;;;;;;6240807;28;20294;-66
2023/07/22 14:53:26;;;;;;;6.30;4.30;;;;;;;;;;6245189;28;20194;-68
2023/07/22 14:56:27;;;;;;;10.03;6.17;;;;;;;;;;6245151;28;20205;-68
2023/07/22 14:59:28;;;;;;;11.53;6.63;;;;;;;;;;6261475;28;20232;-69
2023/07/22 15:02:30;;;;;;;13.37;7.53;;;;;;;;;;6242914;28;20284;-69
2023/07/22 15:05:31;;;;;;;14.50;9.17;;;;;;;;;;6249156;28;20202;-68
2023/07/22 15:08:32;;;;;;;10.60;6.60;;;;;;;;;;6271852;28;20190;-68
2023/07/22 15:11:35;;;;;;;9.83;6.40;;;;;;;;;;6255553;28;20189;-68
2023/07/22 15:14:37;;;;;;;12.77;6.60;;;;;;;;;;6265357;28;20195;-68
2023/07/22 15:17:38;;;;;;;7.17;6.30;;;;;;;;;;6270517;28;20191;-68
2023/07/22 15:20:39;;;;;;;12.13;6.90;;;;;;;;;;6247806;28;20194;-68
2023/07/22 15:23:41;;;;;;;11.73;7.30;;;;;;;;;;6250275;28;20201;-68
2023/07/22 15:26:43;;;;;;;7.17;6.50;;;;;;;;;;6256771;28;20206;-68
2023/07/22 15:29:45;;;;;;;9.50;7.80;;;;;;;;;;6254276;28;20241;-68
2023/07/22 15:32:46;;;;;;;12.13;7.87;;;;;;;;;;6256636;28;20273;-68
2023/07/22 15:35:47;;;;;;;9.07;7.60;;;;;;;;;;6239646;28;20220;-69
2023/07/22 15:38:48;;;;;;;13.07;6.90;;;;;;;;;;6265364;28;20194;-68
2023/07/22 15:41:49;;;;;;;9.83;7.87;;;;;;;;;;6262462;28;20187;-68
2023/07/22 15:44:50;;;;;;;8.80;8.00;;;;;;;;;;6244488;28;20248;-69
2023/07/22 15:47:51;;;;;;;10.03;7.63;;;;;;;;;;6263061;28;20191;-69
2023/07/22 15:50:54;;;;;;;8.67;7.77;;;;;;;;;;6258329;28;20185;-68
2023/07/22 15:53:56;;;;;;;8.73;7.90;;;;;;;;;;6253073;28;20197;-67
2023/07/22 15:56:57;;;;;;;9.07;8.17;;;;;;;;;;6249237;28;20190;-68
2023/07/22 15:59:58;;;;;;;8.70;7.80;;;;;;;;;;6242573;28;20202;-68
2023/07/22 16:02:59;;;;;;;8.97;8.07;;;;;;;;;;6252379;28;20290;-68
2023/07/22 16:06:00;;;;;;;8.43;7.63;;;;;;;;;;6247777;28;20226;-69
2023/07/22 16:09:01;;;;;;;9.60;7.10;;;;;;;;;;6252255;28;20193;-68
2023/07/22 16:12:03;;;;;;;8.43;6.97;;;;;;;;;;6244381;28;20281;-68
2023/07/22 16:15:08;;;;;;;8.13;7.30;;;;;;;;;;6260729;28;20281;-68
2023/07/22 16:18:09;;;;;;;7.50;6.63;;;;;;;;;;6257463;28;20221;-68
2023/07/22 16:21:10;;;;;;;8.67;7.07;;;;;;;;;;6246593;28;20201;-68
2023/07/22 16:24:11;;;;;;;6.67;5.67;;;;;;;;;;6246408;28;20289;-69
2023/07/22 16:27:12;;;;;;;8.27;7.07;;;;;;;;;;6243215;28;20218;-67
2023/07/22 16:30:13;;;;;;;8.03;7.00;;;;;;;;;;6244175;28;20256;-67
2023/07/22 16:33:14;;;;;;;7.30;6.13;;;;;;;;;;6270869;28;20201;-67
2023/07/22 16:36:15;;;;;;;8.17;5.73;;;;;;;;;;6246633;28;20221;-67
2023/07/22 16:39:16;;;;;;;9.77;6.67;;;;;;;;;;6250363;28;20219;-67
2023/07/22 16:42:17;;;;;;;7.37;5.97;;;;;;;;;;6240812;28;20190;-68
2023/07/22 16:45:18;;;;;;;9.07;5.67;;;;;;;;;;6255538;28;20206;-68
2023/07/22 16:48:19;;;;;;;9.23;6.70;;;;;;;;;;6252667;28;20221;-67
2023/07/22 16:51:22;;;;;;;6.57;5.73;;;;;;;;;;6236300;28;20289;-68
2023/07/22 16:54:23;;;;;;;6.33;5.73;;;;;;;;;;6275123;28;20202;-68
2023/07/22 16:57:24;;;;;;;7.83;6.03;;;;;;;;;;6253726;28;20189;-68
2023/07/22 17:00:25;;;;;;;5.70;5.20;;;;;;;;;;6245953;28;20201;-68
2023/07/22 17:03:26;;;;;;;6.43;5.40;;;;;;;;;;6261130;28;20186;-68
2023/07/22 17:06:29;;;;;;;8.50;6.20;;;;;;;;;;6245453;28;20214;-69
2023/07/22 17:09:31;;;;;;;9.90;6.37;;;;;;;;;;6244791;28;20229;-69
2023/07/22 17:12:32;;;;;;;9.20;6.53;;;;;;;;;;6246084;28;20534;-68
2023/07/22 17:15:33;;;;;;;6.63;5.47;;;;;;;;;;6246465;28;20214;-68
2023/07/22 17:18:34;;;;;;;6.97;5.50;;;;;;;;;;6244639;28;20208;-68
2023/07/22 17:21:35;;;;;;;8.33;6.07;;;;;;;;;;6267042;28;20202;-68
2023/07/22 17:24:36;;;;;;;9.67;6.00;;;;;;;;;;6268331;28;20196;-68
2023/07/22 17:27:37;;;;;;;7.80;6.00;;;;;;;;;;6239000;28;20195;-68
2023/07/22 17:30:39;;;;;;;7.53;6.03;;;;;;;;;;6254041;28;20325;-68
2023/07/22 17:33:40;;;;;;;7.10;6.23;;;;;;;;;;6242080;28;20229;-68
2023/07/22 17:36:42;;;;;;;8.10;6.50;;;;;;;;;;6245061;28;20194;-68
2023/07/22 17:39:43;;;;;;;5.80;5.27;;;;;;;;;;6264173;28;20543;-68
2023/07/22 17:42:44;;;;;;;7.60;6.10;;;;;;;;;;6253439;28;20200;-68
2023/07/22 17:45:46;;;;;;;7.87;5.90;;;;;;;;;;6249364;28;20272;-68
2023/07/22 17:48:47;;;;;;;8.80;5.53;;;;;;;;;;6259123;28;20202;-69
2023/07/22 17:51:48;;;;;;;9.07;6.20;;;;;;;;;;6249057;28;20208;-68
2023/07/22 17:54:50;;;;;;;6.80;6.13;;;;;;;;;;6249455;28;20217;-68
2023/07/22 17:57:51;;;;;;;8.27;5.80;;;;;;;;;;6256535;28;20197;-68
2023/07/22 18:00:52;;;;;;;9.97;6.50;;;;;;;;;;6252420;28;20204;-68